createdAt,value
2022-09-24T00:03:14.633Z,11.05
2022-09-24T00:08:17.029Z,7.00
2022-09-24T00:13:19.383Z,8.07
2022-09-24T00:18:21.906Z,7.47
2022-09-24T00:23:22.683Z,24.50
2022-09-24T00:28:24.641Z,8.77
2022-09-24T00:33:26.143Z,9.73
2022-09-24T00:38:26.761Z,10.18
2022-09-24T00:43:30.936Z,10.23
2022-09-24T00:48:34.276Z,12.05
2022-09-24T00:53:35.780Z,8.77
2022-09-24T00:58:38.113Z,8.60
2022-09-24T01:03:42.385Z,14.27
2022-09-24T01:08:43.475Z,11.25
2022-09-24T01:13:56.345Z,7.45
2022-09-24T01:19:05.750Z,10.93
2022-09-24T01:24:41.117Z,10.07
2022-09-24T01:29:53.284Z,7.38
2022-09-24T01:34:58.808Z,10.88
2022-09-24T01:40:00.747Z,9.68
2022-09-24T01:45:03.748Z,11.15
2022-09-24T01:50:05.884Z,7.78
2022-09-24T01:55:08.965Z,8.10
2022-09-24T02:00:13.078Z,10.80
2022-09-24T02:05:19.742Z,8.18
2022-09-24T02:10:21.631Z,13.70
2022-09-24T02:15:32.215Z,9.00
2022-09-24T02:20:36.269Z,9.77
2022-09-24T02:25:42.823Z,10.60
2022-09-24T02:30:50.819Z,7.75
2022-09-24T02:35:53.378Z,9.07
2022-09-24T02:40:55.256Z,9.00
2022-09-24T02:45:57.377Z,9.52
2022-09-24T02:50:57.989Z,10.23
2022-09-24T02:56:00.262Z,10.00
2022-09-24T03:01:02.304Z,8.88
2022-09-24T03:06:02.910Z,8.35
2022-09-24T03:11:04.175Z,9.00
2022-09-24T03:16:07.578Z,9.98
2022-09-24T03:21:12.111Z,12.48
2022-09-24T03:26:13.116Z,8.88
2022-09-24T03:31:15.133Z,7.07
2022-09-24T03:36:18.039Z,7.78
2022-09-24T03:41:18.963Z,7.35
2022-09-24T03:46:21.034Z,11.30
2022-09-24T03:51:22.800Z,9.20
2022-09-24T03:56:23.445Z,11.40
2022-09-24T04:01:25.463Z,7.70
2022-09-24T04:06:27.088Z,6.80
2022-09-24T04:11:27.831Z,9.30
2022-09-24T04:16:29.847Z,8.52
2022-09-24T04:21:30.947Z,8.88
2022-09-24T04:26:32.007Z,8.68
2022-09-24T04:31:34.326Z,8.68
2022-09-24T04:36:35.004Z,10.35
2022-09-24T04:41:36.055Z,13.60
2022-09-24T04:46:38.209Z,8.23
2022-09-24T04:51:39.137Z,13.13
2022-09-24T04:56:39.736Z,10.73
2022-09-24T05:01:41.780Z,10.98
2022-09-24T05:06:42.477Z,11.45
2022-09-24T05:11:43.082Z,10.50
2022-09-24T05:16:45.053Z,11.55
2022-09-24T05:21:46.318Z,8.18
2022-09-24T05:27:04.642Z,12.90
2022-09-24T05:32:13.042Z,8.02
2022-09-24T05:37:15.524Z,8.60
2022-09-24T05:42:16.233Z,10.52
2022-09-24T05:47:18.284Z,9.88
2022-09-24T05:52:18.927Z,7.78
2022-09-24T05:57:19.694Z,9.60
2022-09-24T06:02:21.688Z,11.98
2022-09-24T06:07:22.453Z,8.63
2022-09-24T06:12:23.580Z,7.82
2022-09-24T06:17:27.217Z,11.48
2022-09-24T06:22:29.221Z,11.25
2022-09-24T06:27:29.828Z,8.90
2022-09-24T06:32:32.064Z,9.48
2022-09-24T06:37:34.044Z,7.97
2022-09-24T06:42:34.717Z,7.88
2022-09-24T06:47:36.697Z,12.05
2022-09-24T06:52:37.446Z,10.68
2022-09-24T06:57:38.125Z,10.48
2022-09-24T07:02:40.185Z,8.75
2022-09-24T07:07:41.421Z,7.97
2022-09-24T07:12:42.814Z,8.38
2022-09-24T07:17:44.762Z,8.80
2022-09-24T07:22:45.433Z,9.77
2022-09-24T07:27:46.063Z,8.90
2022-09-24T07:32:48.342Z,7.93
2022-09-24T07:37:48.996Z,13.35
2022-09-24T07:42:49.758Z,8.70
2022-09-24T07:47:59.842Z,8.75
2022-09-24T07:53:01.395Z,7.78
2022-09-24T07:58:02.161Z,7.70
2022-09-24T08:03:05.631Z,7.75
2022-09-24T08:08:06.457Z,7.15
2022-09-24T08:13:07.086Z,9.07
2022-09-24T08:18:09.281Z,10.68
2022-09-24T08:23:11.055Z,7.63
2022-09-24T08:28:12.152Z,7.28
2022-09-24T08:33:15.390Z,7.18
2022-09-24T08:38:15.996Z,7.05
2022-09-24T08:43:30.965Z,10.25
2022-09-24T08:48:37.222Z,7.13
2022-09-24T08:53:48.633Z,7.35
2022-09-24T08:58:53.881Z,9.57
2022-09-24T09:04:05.012Z,10.50
2022-09-24T09:09:12.840Z,6.00
2022-09-24T09:14:18.712Z,6.20
2022-09-24T09:19:27.525Z,11.27
2022-09-24T09:24:36.157Z,5.85
2022-09-24T09:29:37.521Z,8.00
2022-09-24T09:34:52.527Z,5.38
2022-09-24T09:40:00.498Z,7.63
2022-09-24T09:45:02.813Z,9.95
2022-09-24T09:50:12.339Z,6.40
2022-09-24T09:55:23.045Z,4.53
2022-09-24T10:00:33.545Z,5.40
2022-09-24T10:05:35.832Z,4.85
2022-09-24T10:10:36.465Z,6.70
2022-09-24T10:15:50.078Z,5.70
2022-09-24T10:20:52.519Z,5.07
2022-09-24T10:25:59.928Z,3.63
2022-09-24T10:31:04.738Z,3.80
2022-09-24T10:36:09.609Z,5.00
2022-09-24T10:41:27.829Z,5.55
2022-09-24T10:46:44.134Z,5.30
2022-09-24T10:51:53.250Z,4.70
2022-09-24T10:56:57.761Z,3.15
2022-09-24T11:02:18.105Z,2.47
2022-09-24T11:07:50.249Z,4.00
2022-09-24T11:13:03.652Z,4.50
2022-09-24T11:18:19.785Z,4.63
2022-09-24T11:23:43.651Z,7.70
2022-09-24T11:29:05.366Z,9.00
2022-09-24T11:34:22.694Z,4.15
2022-09-24T11:39:38.938Z,7.50
2022-09-24T11:45:02.905Z,4.13
2022-09-24T11:50:27.256Z,2.58
2022-09-24T11:55:35.803Z,5.55
2022-09-24T12:00:41.576Z,4.68
2022-09-24T12:05:49.377Z,2.95
2022-09-24T12:10:57.930Z,3.35
2022-09-24T12:16:04.202Z,3.65
2022-09-24T12:21:10.761Z,3.40
2022-09-24T12:26:16.935Z,3.92
2022-09-24T12:31:43.053Z,2.67
2022-09-24T12:36:57.559Z,3.13
2022-09-24T12:42:03.989Z,3.55
2022-09-24T12:47:07.233Z,2.22
2022-09-24T12:52:19.142Z,4.22
2022-09-24T12:57:26.143Z,4.97
2022-09-24T13:02:29.544Z,4.53
2022-09-24T13:07:32.335Z,3.25
2022-09-24T13:12:34.426Z,2.55
2022-09-24T13:17:38.258Z,4.70
2022-09-24T13:22:38.944Z,6.10
2022-09-24T13:27:43.329Z,5.53
2022-09-24T13:32:50.277Z,2.92
2022-09-24T13:37:57.148Z,5.18
2022-09-24T13:43:06.276Z,2.70
2022-09-24T13:48:19.547Z,3.70
2022-09-24T13:53:27.510Z,2.67
2022-09-24T13:58:31.261Z,2.30
2022-09-24T14:03:34.612Z,4.43
2022-09-24T14:08:36.089Z,2.05
2022-09-24T14:13:45.688Z,4.63
2022-09-24T14:18:47.074Z,2.83
2022-09-24T14:23:54.629Z,3.10
2022-09-24T14:28:59.038Z,2.53
2022-09-24T14:34:04.383Z,3.47
2022-09-24T14:39:06.787Z,3.35
2022-09-24T14:44:15.412Z,2.50
2022-09-24T14:49:20.439Z,4.03
2022-09-24T14:54:28.422Z,3.17
2022-09-24T14:59:32.244Z,3.05
2022-09-24T15:04:33.162Z,2.40
2022-09-24T15:09:33.964Z,3.10
2022-09-24T15:14:36.778Z,2.58
2022-09-24T15:19:40.887Z,5.53
2022-09-24T15:24:41.591Z,5.63
2022-09-24T15:29:43.565Z,3.97
2022-09-24T15:34:44.386Z,4.47
2022-09-24T15:39:49.163Z,8.43
2022-09-24T15:44:51.650Z,4.55
2022-09-24T15:49:52.451Z,3.50
2022-09-24T15:54:54.368Z,4.93
2022-09-24T15:59:56.501Z,7.75
2022-09-24T16:05:01.456Z,5.95
2022-09-24T16:10:05.245Z,6.97
2022-09-24T16:15:09.074Z,6.63
2022-09-24T16:20:10.670Z,6.63
2022-09-24T16:25:11.419Z,7.95
2022-09-24T16:30:13.626Z,7.93
2022-09-24T16:35:14.323Z,11.77
2022-09-24T16:40:15.442Z,7.68
2022-09-24T16:45:18.085Z,14.40
2022-09-24T16:50:20.169Z,7.93
2022-09-24T16:55:20.885Z,9.50
2022-09-24T17:00:22.894Z,13.55
2022-09-24T17:05:23.761Z,18.17
2022-09-24T17:10:24.438Z,11.65
2022-09-24T17:15:27.324Z,13.07
2022-09-24T17:20:27.978Z,14.65
2022-09-24T17:25:28.651Z,11.73
2022-09-24T17:30:30.734Z,7.47
2022-09-24T17:35:31.387Z,16.13
2022-09-24T17:40:32.075Z,11.10
2022-09-24T17:45:34.156Z,12.45
2022-09-24T17:50:34.839Z,13.02
2022-09-24T17:55:36.066Z,13.93
2022-09-24T18:00:39.280Z,13.95
2022-09-24T18:05:40.304Z,11.95
2022-09-24T18:10:41.077Z,11.35
2022-09-24T18:15:43.108Z,12.88
2022-09-24T18:20:43.896Z,13.10
2022-09-24T18:25:44.644Z,17.98
2022-09-24T18:30:46.681Z,13.23
2022-09-24T18:35:47.338Z,12.00
2022-09-24T18:40:49.348Z,13.13
2022-09-24T18:45:51.446Z,13.30
2022-09-24T18:50:52.139Z,13.52
2022-09-24T18:55:53.109Z,22.42
2022-09-24T19:00:59.800Z,18.20
2022-09-24T19:06:02.825Z,16.83
2022-09-24T19:11:09.271Z,14.88
2022-09-24T19:16:13.333Z,15.40
2022-09-24T19:21:15.657Z,14.25
2022-09-24T19:26:18.031Z,20.23
2022-09-24T19:31:22.202Z,18.98
2022-09-24T19:36:23.402Z,19.48
2022-09-24T19:41:26.995Z,23.70
2022-09-24T19:46:31.269Z,18.95
2022-09-24T19:51:34.187Z,22.13
2022-09-24T19:56:35.360Z,21.08
2022-09-24T20:01:37.684Z,22.65
2022-09-24T20:06:39.664Z,23.90
2022-09-24T20:11:40.581Z,20.05
2022-09-24T20:16:44.548Z,20.50
2022-09-24T20:21:45.218Z,15.93
2022-09-24T20:27:03.558Z,16.88
2022-09-24T20:32:05.759Z,15.23
2022-09-24T20:37:06.674Z,15.73
2022-09-24T20:42:07.318Z,16.83
2022-09-24T20:47:10.392Z,24.45
2022-09-24T20:52:11.040Z,17.30
2022-09-24T20:57:11.671Z,16.40
2022-09-24T21:02:13.701Z,18.98
2022-09-24T21:07:14.453Z,15.95
2022-09-24T21:12:15.066Z,14.00
2022-09-24T21:17:17.864Z,14.70
2022-09-24T21:22:18.547Z,19.55
2022-09-24T21:27:19.962Z,16.38
2022-09-24T21:32:22.086Z,17.48
2022-09-24T21:37:23.318Z,12.27
2022-09-24T21:42:25.406Z,19.17
2022-09-24T21:47:27.357Z,18.95
2022-09-24T21:52:31.318Z,16.63
2022-09-24T21:57:31.935Z,16.20
2022-09-24T22:02:33.941Z,14.05
2022-09-24T22:07:34.607Z,16.92
2022-09-24T22:12:35.459Z,16.67
2022-09-24T22:17:37.530Z,19.83
2022-09-24T22:22:38.145Z,16.90
2022-09-24T22:27:38.766Z,17.02
2022-09-24T22:32:40.750Z,15.10
2022-09-24T22:37:41.401Z,20.20
2022-09-24T22:42:42.002Z,13.93
2022-09-24T22:47:43.962Z,18.65
2022-09-24T22:52:44.589Z,15.10
2022-09-24T22:57:45.189Z,17.30
2022-09-24T23:02:47.336Z,20.58
2022-09-24T23:07:49.009Z,18.40
2022-09-24T23:12:50.075Z,13.40
2022-09-24T23:17:52.230Z,19.25
2022-09-24T23:22:52.892Z,16.80
2022-09-24T23:27:53.509Z,16.73
2022-09-24T23:32:55.455Z,15.63
2022-09-24T23:37:56.090Z,18.25
2022-09-24T23:42:56.770Z,17.38
2022-09-24T23:47:59.096Z,17.08
2022-09-24T23:52:59.748Z,18.17
2022-09-24T23:58:00.463Z,17.73
